createdAt,value
2019-01-06T00:01:05.387Z,100.00
2019-01-06T00:03:41.156Z,100.00
2019-01-06T00:06:19.887Z,100.00
2019-01-06T00:09:07.045Z,100.00
2019-01-06T00:11:50.232Z,100.00
2019-01-06T00:14:35.362Z,100.00
2019-01-06T00:17:05.465Z,100.00
2019-01-06T00:19:38.554Z,100.00
2019-01-06T00:22:16.968Z,100.00
2019-01-06T00:24:57.628Z,100.00
2019-01-06T00:27:42.332Z,100.00
2019-01-06T00:30:27.084Z,100.00
2019-01-06T00:33:13.279Z,100.00
2019-01-06T00:35:46.090Z,100.00
2019-01-06T00:38:28.267Z,100.00
2019-01-06T00:41:07.255Z,100.00
2019-01-06T00:43:53.144Z,100.00
2019-01-06T00:46:41.086Z,100.00
2019-01-06T00:49:19.988Z,100.00
2019-01-06T00:52:01.717Z,100.00
2019-01-06T00:54:34.446Z,100.00
2019-01-06T00:57:16.266Z,100.00
2019-01-06T00:59:54.912Z,100.00
2019-01-06T01:02:27.642Z,100.00
2019-01-06T01:05:03.745Z,100.00
2019-01-06T01:07:33.759Z,100.00
2019-01-06T01:10:06.228Z,100.00
2019-01-06T01:12:54.376Z,100.00
2019-01-06T01:15:27.440Z,100.00
2019-01-06T01:18:09.572Z,100.00
2019-01-06T01:20:48.326Z,100.00
2019-01-06T01:23:18.344Z,100.00
2019-01-06T01:25:51.438Z,100.00
2019-01-06T01:28:30.638Z,100.00
2019-01-06T01:31:03.632Z,100.00
2019-01-06T01:33:51.511Z,100.00
2019-01-06T01:36:26.966Z,100.00
2019-01-06T01:39:13.045Z,100.00
2019-01-06T01:41:43.098Z,100.00
2019-01-06T01:44:15.771Z,100.00
2019-01-06T01:46:54.986Z,100.00
2019-01-06T01:49:27.952Z,100.00
2019-01-06T01:52:00.377Z,100.00
2019-01-06T01:54:46.587Z,100.00
2019-01-06T01:57:25.427Z,100.00
2019-01-06T01:59:55.446Z,100.00
2019-01-06T02:02:31.163Z,100.00
2019-01-06T02:05:01.184Z,100.00
2019-01-06T02:07:36.637Z,100.00
2019-01-06T02:10:09.388Z,100.00
2019-01-06T02:12:39.420Z,100.00
2019-01-06T02:15:09.516Z,100.00
2019-01-06T02:17:39.536Z,100.00
2019-01-06T02:20:09.621Z,100.00
2019-01-06T02:22:45.586Z,100.00
2019-01-06T02:25:31.282Z,100.00
2019-01-06T02:28:07.353Z,100.00
2019-01-06T02:30:40.330Z,100.00
2019-01-06T02:33:12.755Z,100.00
2019-01-06T02:35:44.296Z,100.00
2019-01-06T02:38:26.308Z,100.00
2019-01-06T02:41:05.032Z,100.00
2019-01-06T02:43:43.856Z,100.00
2019-01-06T02:46:13.877Z,100.00
2019-01-06T02:48:47.848Z,100.00
2019-01-06T02:51:20.273Z,100.00
2019-01-06T02:53:56.069Z,100.00
2019-01-06T02:56:29.160Z,100.00
2019-01-06T02:59:04.948Z,100.00
2019-01-06T03:01:43.785Z,100.00
2019-01-06T03:04:22.930Z,100.00
2019-01-06T03:07:04.658Z,100.00
2019-01-06T03:09:50.685Z,100.00
2019-01-06T03:12:20.711Z,100.00
2019-01-06T03:14:59.530Z,100.00
2019-01-06T03:17:29.548Z,100.00
2019-01-06T03:20:15.794Z,100.00
2019-01-06T03:22:45.824Z,100.00
2019-01-06T03:25:15.854Z,100.00
2019-01-06T03:28:01.823Z,100.00
2019-01-06T03:30:47.871Z,100.00
2019-01-06T03:33:20.597Z,100.00
2019-01-06T03:36:06.532Z,100.00
2019-01-06T03:38:45.636Z,100.00
2019-01-06T03:41:27.375Z,100.00
2019-01-06T03:44:01.321Z,100.00
2019-01-06T03:46:37.308Z,100.00
2019-01-06T03:49:25.177Z,100.00
2019-01-06T03:51:55.202Z,100.00
2019-01-06T03:54:39.938Z,100.00
2019-01-06T03:57:15.867Z,100.00
2019-01-06T03:59:51.339Z,100.00
2019-01-06T04:02:27.375Z,100.00
2019-01-06T04:05:00.023Z,100.00
2019-01-06T04:07:46.021Z,100.00
2019-01-06T04:10:18.443Z,100.00
2019-01-06T04:13:04.548Z,100.00
2019-01-06T04:15:52.768Z,100.00
2019-01-06T04:18:25.304Z,100.00
2019-01-06T04:21:07.251Z,100.00
2019-01-06T04:23:53.454Z,100.00
2019-01-06T04:26:38.306Z,100.00
2019-01-06T04:29:08.327Z,100.00
2019-01-06T04:31:50.179Z,100.00
2019-01-06T04:34:22.925Z,100.00
2019-01-06T04:37:02.050Z,100.00
2019-01-06T04:39:34.749Z,100.00
2019-01-06T04:42:20.923Z,100.00
2019-01-06T04:45:06.603Z,100.00
2019-01-06T04:47:36.640Z,100.00
2019-01-06T04:50:23.660Z,100.00
2019-01-06T04:53:02.618Z,100.00
2019-01-06T04:55:35.069Z,100.00
2019-01-06T04:58:20.722Z,100.00
2019-01-06T05:00:56.239Z,100.00
2019-01-06T05:03:26.254Z,100.00
2019-01-06T05:06:04.721Z,100.00
2019-01-06T05:08:37.425Z,100.00
2019-01-06T05:11:13.423Z,100.00
2019-01-06T05:14:01.797Z,100.00
2019-01-06T05:16:31.832Z,100.00
2019-01-06T05:19:13.422Z,100.00
2019-01-06T05:22:00.981Z,100.00
2019-01-06T05:24:33.905Z,100.00
2019-01-06T05:27:09.583Z,100.00
2019-01-06T05:29:54.505Z,100.00
2019-01-06T05:32:24.532Z,100.00
2019-01-06T05:34:54.547Z,100.00
2019-01-06T05:37:24.570Z,100.00
2019-01-06T05:40:06.415Z,100.00
2019-01-06T05:42:52.430Z,100.00
2019-01-06T05:45:38.050Z,100.00
2019-01-06T05:48:13.795Z,100.00
2019-01-06T05:50:49.231Z,100.00
2019-01-06T05:53:24.947Z,100.00
2019-01-06T05:55:57.381Z,100.00
2019-01-06T05:58:30.414Z,100.00
2019-01-06T06:01:12.251Z,100.00
2019-01-06T06:03:50.961Z,100.00
2019-01-06T06:06:26.931Z,100.00
2019-01-06T06:09:08.668Z,100.00
2019-01-06T06:11:54.818Z,100.00
2019-01-06T06:14:40.820Z,100.00
2019-01-06T06:17:19.687Z,100.00
2019-01-06T06:19:55.197Z,100.00
2019-01-06T06:22:37.048Z,100.00
2019-01-06T06:25:23.020Z,100.00
2019-01-06T06:27:53.044Z,100.00
2019-01-06T06:30:32.623Z,100.00
2019-01-06T06:33:05.575Z,100.00
2019-01-06T06:35:35.601Z,100.00
2019-01-06T06:38:08.030Z,100.00
2019-01-06T06:40:43.903Z,100.00
2019-01-06T06:43:13.930Z,100.00
2019-01-06T06:45:56.030Z,100.00
2019-01-06T06:48:34.590Z,100.00
2019-01-06T06:51:13.313Z,100.00
2019-01-06T06:53:55.270Z,100.00
2019-01-06T06:56:25.299Z,100.00
2019-01-06T06:59:01.300Z,100.00
2019-01-06T07:01:37.114Z,100.00
2019-01-06T07:04:18.821Z,100.00
2019-01-06T07:07:03.419Z,100.00
2019-01-06T07:09:49.668Z,100.00
2019-01-06T07:12:34.817Z,100.00
2019-01-06T07:15:10.859Z,100.00
2019-01-06T07:17:53.201Z,100.00
2019-01-06T07:20:28.510Z,100.00
2019-01-06T07:23:10.379Z,100.00
2019-01-06T07:25:48.929Z,100.00
2019-01-06T07:28:24.385Z,100.00
2019-01-06T07:31:10.134Z,100.00
2019-01-06T07:33:42.554Z,100.00
2019-01-06T07:36:27.667Z,100.00
2019-01-06T07:38:57.690Z,100.00
2019-01-06T07:41:31.322Z,100.00
2019-01-06T07:44:04.025Z,100.00
2019-01-06T07:46:45.748Z,100.00
2019-01-06T07:49:15.778Z,100.00
2019-01-06T07:51:51.561Z,100.00
2019-01-06T07:54:40.803Z,100.00
2019-01-06T07:57:16.582Z,100.00
2019-01-06T07:59:58.452Z,100.00
2019-01-06T08:02:37.157Z,100.00
2019-01-06T08:05:23.757Z,100.00
2019-01-06T08:07:55.625Z,100.00
2019-01-06T08:10:25.511Z,100.00
2019-01-06T08:12:55.802Z,100.00
2019-01-06T08:15:28.328Z,100.00
2019-01-06T08:18:01.121Z,100.00
2019-01-06T08:20:32.818Z,100.00
2019-01-06T08:23:02.953Z,100.00
2019-01-06T08:25:48.619Z,100.00
2019-01-06T08:28:24.058Z,100.00
2019-01-06T08:30:56.753Z,100.00
2019-01-06T08:33:44.814Z,100.00
2019-01-06T08:36:27.000Z,100.00
2019-01-06T08:39:10.502Z,100.00
2019-01-06T08:41:43.234Z,100.00
2019-01-06T08:44:19.020Z,100.00
2019-01-06T08:47:04.658Z,100.00
2019-01-06T08:49:40.665Z,100.00
2019-01-06T08:52:10.691Z,100.00
2019-01-06T08:54:43.455Z,100.00
2019-01-06T08:57:13.491Z,100.00
2019-01-06T08:59:48.965Z,100.00
2019-01-06T09:02:18.998Z,100.00
2019-01-06T09:04:49.013Z,100.00
2019-01-06T09:07:27.799Z,100.00
2019-01-06T09:10:03.494Z,100.00
2019-01-06T09:12:49.675Z,100.00
2019-01-06T09:15:35.741Z,100.00
2019-01-06T09:18:10.680Z,100.00
2019-01-06T09:20:43.111Z,100.00
2019-01-06T09:23:13.377Z,100.00
2019-01-06T09:25:43.441Z,100.00
2019-01-06T09:28:13.449Z,100.00
2019-01-06T09:30:49.454Z,100.00
2019-01-06T09:33:25.428Z,100.00
2019-01-06T09:35:55.449Z,100.00
2019-01-06T09:38:31.332Z,100.00
2019-01-06T09:41:01.364Z,100.00
2019-01-06T09:43:33.790Z,100.00
2019-01-06T09:46:06.323Z,100.00
2019-01-06T09:48:36.333Z,100.00
2019-01-06T09:51:06.357Z,100.00
2019-01-06T09:53:52.193Z,100.00
2019-01-06T09:56:31.069Z,100.00
2019-01-06T09:59:06.845Z,100.00
2019-01-06T10:01:39.825Z,100.00
2019-01-06T10:04:25.710Z,100.00
2019-01-06T10:06:55.741Z,100.00
2019-01-06T10:09:37.330Z,100.00
2019-01-06T10:12:22.139Z,100.00
2019-01-06T10:15:03.986Z,100.00
2019-01-06T10:17:50.029Z,100.00
2019-01-06T10:20:20.050Z,100.00
2019-01-06T10:22:50.069Z,100.00
2019-01-06T10:25:25.884Z,100.00
2019-01-06T10:27:56.851Z,100.00
2019-01-06T10:30:43.812Z,100.00
2019-01-06T10:33:16.588Z,100.00
2019-01-06T10:35:58.424Z,100.00
2019-01-06T10:38:50.844Z,100.00
2019-01-06T10:41:24.163Z,100.00
2019-01-06T10:43:55.109Z,100.00
2019-01-06T10:46:30.905Z,100.00
2019-01-06T10:49:18.541Z,100.00
2019-01-06T10:52:04.262Z,100.00
2019-01-06T10:54:43.001Z,100.00
2019-01-06T10:57:16.716Z,100.00
2019-01-06T10:59:49.508Z,100.00
2019-01-06T11:02:35.762Z,100.00
2019-01-06T11:05:15.213Z,100.00
2019-01-06T11:07:45.223Z,100.00
2019-01-06T11:10:20.924Z,100.00
2019-01-06T11:13:02.438Z,100.00
2019-01-06T11:15:40.972Z,100.00
2019-01-06T11:18:10.989Z,100.00
2019-01-06T11:20:54.046Z,100.00
2019-01-06T11:23:26.702Z,100.00
2019-01-06T11:25:56.732Z,100.00
2019-01-06T11:28:29.454Z,100.00
2019-01-06T11:31:15.859Z,100.00
2019-01-06T11:34:03.038Z,100.00
2019-01-06T11:36:35.734Z,100.00
2019-01-06T11:39:22.235Z,100.00
2019-01-06T11:41:55.159Z,100.00
2019-01-06T11:44:34.227Z,100.00
2019-01-06T11:47:13.084Z,100.00
2019-01-06T11:49:46.170Z,100.00
2019-01-06T11:52:16.204Z,100.00
2019-01-06T11:54:54.891Z,100.00
2019-01-06T11:57:41.423Z,100.00
2019-01-06T12:00:23.420Z,100.00
2019-01-06T12:02:54.420Z,100.00
2019-01-06T12:05:24.445Z,100.00
2019-01-06T12:08:00.501Z,100.00
2019-01-06T12:10:36.321Z,100.00
2019-01-06T12:13:12.159Z,100.00
2019-01-06T12:15:47.933Z,100.00
2019-01-06T12:18:33.891Z,100.00
2019-01-06T12:21:03.909Z,100.00
2019-01-06T12:23:45.748Z,100.00
2019-01-06T12:26:16.009Z,100.00
2019-01-06T12:29:02.345Z,100.00
2019-01-06T12:31:35.064Z,100.00
2019-01-06T12:34:21.344Z,100.00
2019-01-06T12:36:51.621Z,100.00
2019-01-06T12:39:21.671Z,100.00
2019-01-06T12:41:57.456Z,100.00
2019-01-06T12:44:33.199Z,100.00
2019-01-06T12:47:18.073Z,100.00
2019-01-06T12:49:50.811Z,100.00
2019-01-06T12:52:36.733Z,100.00
2019-01-06T12:55:24.650Z,100.00
2019-01-06T12:57:57.864Z,100.00
2019-01-06T13:00:39.684Z,100.00
2019-01-06T13:03:09.765Z,100.00
2019-01-06T13:05:42.509Z,100.00
2019-01-06T13:08:15.187Z,100.00
2019-01-06T13:10:45.218Z,100.00
2019-01-06T13:13:20.741Z,100.00
2019-01-06T13:16:06.716Z,100.00
2019-01-06T13:18:51.857Z,100.00
2019-01-06T13:21:24.460Z,100.00
2019-01-06T13:24:09.302Z,100.00
2019-01-06T13:26:55.173Z,100.00
2019-01-06T13:29:28.152Z,100.00
2019-01-06T13:32:16.000Z,100.00
2019-01-06T13:34:58.115Z,100.00
2019-01-06T13:37:46.052Z,100.00
2019-01-06T13:40:42.738Z,100.00
2019-01-06T13:43:16.716Z,100.00
2019-01-06T13:45:52.431Z,100.00
2019-01-06T13:48:22.463Z,100.00
2019-01-06T13:51:10.533Z,100.00
2019-01-06T13:53:49.530Z,100.00
2019-01-06T13:56:35.192Z,100.00
2019-01-06T13:59:11.285Z,100.00
2019-01-06T14:02:02.723Z,100.00
2019-01-06T14:04:48.641Z,100.00
2019-01-06T14:07:18.665Z,100.00
2019-01-06T14:09:51.491Z,100.00
2019-01-06T14:12:35.571Z,100.00
2019-01-06T14:15:06.102Z,100.00
2019-01-06T14:17:38.526Z,100.00
2019-01-06T14:20:25.214Z,100.00
2019-01-06T14:23:00.911Z,100.00
2019-01-06T14:25:45.771Z,100.00
2019-01-06T14:28:34.583Z,100.00
2019-01-06T14:31:20.575Z,100.00
2019-01-06T14:33:51.559Z,100.00
2019-01-06T14:36:27.363Z,100.00
2019-01-06T14:39:00.359Z,100.00
2019-01-06T14:41:31.341Z,100.00
2019-01-06T14:44:17.085Z,100.00
2019-01-06T14:46:49.927Z,100.00
2019-01-06T14:49:19.949Z,100.00
2019-01-06T14:51:52.365Z,100.00
2019-01-06T14:54:22.387Z,100.00
2019-01-06T14:57:00.985Z,100.00
2019-01-06T14:59:31.018Z,100.00
2019-01-06T15:02:09.699Z,100.00
2019-01-06T15:04:40.775Z,100.00
2019-01-06T15:07:10.787Z,99.85
2019-01-06T15:09:58.728Z,99.45
2019-01-06T15:12:45.895Z,99.42
2019-01-06T15:15:35.231Z,99.27
2019-01-06T15:18:19.010Z,99.45
2019-01-06T15:20:49.027Z,99.08
2019-01-06T15:23:19.945Z,99.47
2019-01-06T15:25:49.969Z,99.37
2019-01-06T15:28:37.860Z,98.57
2019-01-06T15:31:19.732Z,99.53
2019-01-06T15:34:05.661Z,98.51
2019-01-06T15:36:38.356Z,98.37
2019-01-06T15:39:17.154Z,99.42
2019-01-06T15:41:55.598Z,99.02
2019-01-06T15:44:34.604Z,99.21
2019-01-06T15:47:10.581Z,98.55
2019-01-06T15:49:52.415Z,99.11
2019-01-06T15:52:37.317Z,98.78
2019-01-06T15:55:22.445Z,98.63
2019-01-06T15:57:52.495Z,99.01
2019-01-06T16:00:38.495Z,98.86
2019-01-06T16:03:08.521Z,98.54
2019-01-06T16:05:41.239Z,99.14
2019-01-06T16:08:20.295Z,98.32
2019-01-06T16:10:50.341Z,98.95
2019-01-06T16:13:36.280Z,98.35
2019-01-06T16:16:25.190Z,98.56
2019-01-06T16:19:10.444Z,98.12
2019-01-06T16:21:40.724Z,98.34
2019-01-06T16:24:27.731Z,98.23
2019-01-06T16:27:00.150Z,98.45
2019-01-06T16:29:45.831Z,98.05
2019-01-06T16:32:31.931Z,97.92
2019-01-06T16:35:17.082Z,98.30
2019-01-06T16:37:55.830Z,98.37
2019-01-06T16:40:31.533Z,97.53
2019-01-06T16:43:04.199Z,97.00
2019-01-06T16:45:51.051Z,96.86
2019-01-06T16:48:37.016Z,96.35
2019-01-06T16:51:12.736Z,96.67
2019-01-06T16:53:45.176Z,98.06
2019-01-06T16:56:31.389Z,97.82
2019-01-06T16:59:01.508Z,96.77
2019-01-06T17:01:31.528Z,95.98
2019-01-06T17:04:10.669Z,97.02
2019-01-06T17:06:49.155Z,96.34
2019-01-06T17:09:35.481Z,96.40
2019-01-06T17:12:21.253Z,95.65
2019-01-06T17:14:51.242Z,95.45
2019-01-06T17:17:23.659Z,96.12
2019-01-06T17:19:53.691Z,96.14
2019-01-06T17:22:39.865Z,96.16
2019-01-06T17:25:10.029Z,96.10
2019-01-06T17:27:55.963Z,96.89
2019-01-06T17:30:31.955Z,96.98
2019-01-06T17:33:01.968Z,97.07
2019-01-06T17:35:43.895Z,96.65
2019-01-06T17:38:32.011Z,97.51
2019-01-06T17:41:07.647Z,97.64
2019-01-06T17:43:43.381Z,97.08
2019-01-06T17:46:16.151Z,97.35
2019-01-06T17:49:02.304Z,97.19
2019-01-06T17:51:49.514Z,97.01
2019-01-06T17:54:21.298Z,97.32
2019-01-06T17:57:04.089Z,96.89
2019-01-06T17:59:50.320Z,97.05
2019-01-06T18:02:30.211Z,96.80
2019-01-06T18:05:00.231Z,97.10
2019-01-06T18:07:42.360Z,96.89
2019-01-06T18:10:28.337Z,97.32
2019-01-06T18:12:58.367Z,96.28
2019-01-06T18:15:40.017Z,96.43
2019-01-06T18:18:10.181Z,96.71
2019-01-06T18:20:57.301Z,96.97
2019-01-06T18:23:27.318Z,96.52
2019-01-06T18:26:00.242Z,97.36
2019-01-06T18:28:30.265Z,97.62
2019-01-06T18:31:16.528Z,96.95
2019-01-06T18:34:04.372Z,96.76
2019-01-06T18:36:34.390Z,97.00
2019-01-06T18:39:10.207Z,97.01
2019-01-06T18:41:57.900Z,96.79
2019-01-06T18:44:30.626Z,96.47
2019-01-06T18:47:06.586Z,96.61
2019-01-06T18:49:42.304Z,96.46
2019-01-06T18:52:18.041Z,96.38
2019-01-06T18:55:03.967Z,97.23
2019-01-06T18:57:48.803Z,97.42
2019-01-06T19:00:27.315Z,97.00
2019-01-06T19:03:08.944Z,96.92
2019-01-06T19:05:41.512Z,97.00
2019-01-06T19:08:14.225Z,97.28
2019-01-06T19:10:49.654Z,97.05
2019-01-06T19:13:37.559Z,96.52
2019-01-06T19:16:07.655Z,97.09
2019-01-06T19:18:37.670Z,97.18
2019-01-06T19:21:07.775Z,97.19
2019-01-06T19:23:49.596Z,97.22
2019-01-06T19:26:28.331Z,96.49
2019-01-06T19:28:58.369Z,96.58
2019-01-06T19:31:34.461Z,96.58
2019-01-06T19:34:10.152Z,96.86
2019-01-06T19:36:48.661Z,96.44
2019-01-06T19:39:33.183Z,96.86
2019-01-06T19:42:19.150Z,96.85
2019-01-06T19:44:57.832Z,97.05
2019-01-06T19:47:45.452Z,96.46
2019-01-06T19:50:30.655Z,96.79
2019-01-06T19:53:00.653Z,97.03
2019-01-06T19:55:46.781Z,97.48
2019-01-06T19:58:22.919Z,97.39
2019-01-06T20:01:10.762Z,97.55
2019-01-06T20:03:55.659Z,97.19
2019-01-06T20:06:42.577Z,97.20
2019-01-06T20:09:24.404Z,96.53
2019-01-06T20:12:11.527Z,96.93
2019-01-06T20:14:57.261Z,96.45
2019-01-06T20:17:30.643Z,96.79
2019-01-06T20:20:06.611Z,96.37
2019-01-06T20:22:51.787Z,97.13
2019-01-06T20:25:34.371Z,96.51
2019-01-06T20:28:13.165Z,96.28
2019-01-06T20:30:52.024Z,97.18
2019-01-06T20:33:30.609Z,96.80
2019-01-06T20:36:17.484Z,96.70
2019-01-06T20:38:59.330Z,97.51
2019-01-06T20:41:29.366Z,96.75
2019-01-06T20:44:15.529Z,96.57
2019-01-06T20:46:45.551Z,96.73
2019-01-06T20:49:21.667Z,96.67
2019-01-06T20:51:57.636Z,96.65
2019-01-06T20:54:45.850Z,97.60
2019-01-06T20:57:24.688Z,97.34
2019-01-06T21:00:00.639Z,97.77
2019-01-06T21:02:46.611Z,97.97
2019-01-06T21:05:28.679Z,97.72
2019-01-06T21:08:16.738Z,97.76
2019-01-06T21:10:51.624Z,97.45
2019-01-06T21:13:21.648Z,97.54
2019-01-06T21:15:57.699Z,96.94
2019-01-06T21:18:45.945Z,97.05
2019-01-06T21:21:15.969Z,96.51
2019-01-06T21:23:48.832Z,97.66
2019-01-06T21:26:34.779Z,97.69
2019-01-06T21:29:04.805Z,97.26
2019-01-06T21:31:49.680Z,97.10
2019-01-06T21:34:25.456Z,97.44
2019-01-06T21:37:03.255Z,97.27
2019-01-06T21:39:38.978Z,97.45
2019-01-06T21:42:20.832Z,97.25
2019-01-06T21:44:59.572Z,98.21
2019-01-06T21:47:45.703Z,97.55
2019-01-06T21:50:31.721Z,98.07
2019-01-06T21:53:07.496Z,98.00
2019-01-06T21:55:37.522Z,99.03
2019-01-06T21:58:12.331Z,98.95
2019-01-06T22:00:51.023Z,97.92
2019-01-06T22:03:26.772Z,98.11
2019-01-06T22:06:12.695Z,97.87
2019-01-06T22:08:48.556Z,98.42
2019-01-06T22:11:24.576Z,98.61
2019-01-06T22:14:03.374Z,98.37
2019-01-06T22:16:42.398Z,98.82
2019-01-06T22:19:28.040Z,99.33
2019-01-06T22:22:16.208Z,98.55
2019-01-06T22:24:49.348Z,98.47
2019-01-06T22:27:34.475Z,98.87
2019-01-06T22:30:20.447Z,98.88
2019-01-06T22:33:06.677Z,98.76
2019-01-06T22:35:52.900Z,99.26
2019-01-06T22:38:22.925Z,98.94
2019-01-06T22:40:55.895Z,98.84
2019-01-06T22:43:34.347Z,98.91
2019-01-06T22:46:04.361Z,98.86
2019-01-06T22:48:40.104Z,99.52
2019-01-06T22:51:12.564Z,99.01
2019-01-06T22:53:58.301Z,99.48
2019-01-06T22:56:28.317Z,98.98
2019-01-06T22:59:16.267Z,99.55
2019-01-06T23:02:02.497Z,100.00
2019-01-06T23:04:47.063Z,98.93
2019-01-06T23:07:33.193Z,99.11
2019-01-06T23:10:12.270Z,98.30
2019-01-06T23:12:42.281Z,98.85
2019-01-06T23:15:12.312Z,98.45
2019-01-06T23:17:57.423Z,98.39
2019-01-06T23:20:27.448Z,97.59
2019-01-06T23:23:15.570Z,97.45
2019-01-06T23:25:48.172Z,97.17
2019-01-06T23:28:23.722Z,98.14
2019-01-06T23:30:53.756Z,98.37
2019-01-06T23:33:23.774Z,97.54
2019-01-06T23:36:11.654Z,98.39
2019-01-06T23:38:47.727Z,98.37
2019-01-06T23:41:29.282Z,98.15
2019-01-06T23:44:02.354Z,97.94
2019-01-06T23:46:48.298Z,98.16
2019-01-06T23:49:18.303Z,98.16
2019-01-06T23:51:53.905Z,98.29
2019-01-06T23:54:29.822Z,97.77
2019-01-06T23:57:05.953Z,98.23
2019-01-06T23:59:38.699Z,98.39
